Time;durP1;ratioP1;P1;durP2;ratioP2;P2;SDS_P1;SDS_P2;PMS_P1;PMS_P2;Temp;Humidity;BMP_temperature;BMP_pressure;BME280_temperature;BME280_humidity;BME280_pressure;Samples;Min_cycle;Max_cycle;Signal;HPM_P1;HPM_P2
2022/02/16 00:00:51;;;;;;;4.97;1.50;;;4.10;87.60;;;;;;5033122;28;20059;-67
2022/02/16 00:03:19;;;;;;;4.28;1.40;;;4.20;87.20;;;;;;5034235;28;20030;-67
2022/02/16 00:05:45;;;;;;;5.15;1.60;;;4.20;86.60;;;;;;5032020;28;20036;-67
2022/02/16 00:08:12;;;;;;;5.30;1.50;;;4.20;86.70;;;;;;5034181;28;20030;-67
2022/02/16 00:10:38;;;;;;;6.80;1.38;;;4.10;87.30;;;;;;5031949;28;20053;-67
2022/02/16 00:13:06;;;;;;;5.20;1.20;;;4.00;87.70;;;;;;5035295;28;20049;-67
2022/02/16 00:15:32;;;;;;;3.67;1.30;;;4.00;87.70;;;;;;5038962;28;20045;-67
2022/02/16 00:17:58;;;;;;;6.72;1.67;;;4.10;87.30;;;;;;5033424;28;20491;-67
2022/02/16 00:20:26;;;;;;;3.28;1.50;;;4.20;86.80;;;;;;5033506;28;20052;-67
2022/02/16 00:22:52;;;;;;;3.85;1.70;;;4.20;86.90;;;;;;5032086;28;20342;-67
2022/02/16 00:25:18;;;;;;;6.50;1.70;;;4.10;87.10;;;;;;5034645;28;20028;-67
2022/02/16 00:27:44;;;;;;;4.22;1.35;;;4.10;87.10;;;;;;5026195;28;20025;-67
2022/02/16 00:30:14;;;;;;;3.00;1.40;;;4.10;87.40;;;;;;5033491;28;20087;-66
2022/02/16 00:32:40;;;;;;;5.55;1.50;;;4.10;87.20;;;;;;5029394;28;20075;-66
2022/02/16 00:35:06;;;;;;;4.15;1.50;;;4.20;86.90;;;;;;5026542;28;20060;-66
2022/02/16 00:37:32;;;;;;;4.30;1.50;;;4.30;86.50;;;;;;5034605;28;20397;-68
2022/02/16 00:39:58;;;;;;;4.75;1.90;;;4.40;86.30;;;;;;5033692;28;20025;-68
2022/02/16 00:42:24;;;;;;;5.45;1.40;;;4.50;85.80;;;;;;5032116;28;20022;-68
2022/02/16 00:44:53;;;;;;;5.18;1.55;;;4.50;86.00;;;;;;5034446;28;20065;-68
2022/02/16 00:47:20;;;;;;;3.78;1.30;;;4.40;86.40;;;;;;5032429;28;20033;-69
2022/02/16 00:49:46;;;;;;;4.60;1.40;;;4.40;86.50;;;;;;5030384;28;20049;-68
2022/02/16 00:52:12;;;;;;;4.63;1.40;;;4.40;86.70;;;;;;5032881;28;20049;-68
2022/02/16 00:54:39;;;;;;;4.57;1.52;;;4.30;86.90;;;;;;5030471;28;20033;-67
2022/02/16 00:57:05;;;;;;;4.20;1.48;;;4.40;87.00;;;;;;5033268;28;20025;-67
2022/02/16 00:59:32;;;;;;;5.35;1.40;;;4.40;86.90;;;;;;5031708;28;20326;-67
2022/02/16 01:01:58;;;;;;;5.93;1.48;;;4.40;87.00;;;;;;5030351;28;20541;-68
2022/02/16 01:04:24;;;;;;;5.68;1.55;;;4.30;87.20;;;;;;5030934;28;20072;-67
2022/02/16 01:06:51;;;;;;;5.03;2.00;;;4.20;87.40;;;;;;5023356;28;20026;-67
2022/02/16 01:09:17;;;;;;;5.97;1.17;;;4.20;87.80;;;;;;5034899;28;20088;-67
2022/02/16 01:11:43;;;;;;;5.25;1.60;;;4.30;87.90;;;;;;5042431;28;20167;-67
2022/02/16 01:14:09;;;;;;;6.97;1.42;;;4.30;87.80;;;;;;5029540;28;20029;-68
2022/02/16 01:16:35;;;;;;;4.65;1.40;;;4.30;87.90;;;;;;5036827;28;20326;-68
2022/02/16 01:19:08;;;;;;;5.43;1.33;;;4.40;87.70;;;;;;5035281;28;20024;-67
2022/02/16 01:21:34;;;;;;;5.85;1.40;;;4.40;87.80;;;;;;5038269;28;20029;-67
2022/02/16 01:24:00;;;;;;;3.80;1.30;;;4.50;87.90;;;;;;5027549;28;20440;-68
2022/02/16 01:26:25;;;;;;;4.25;1.10;;;4.50;87.80;;;;;;5036694;28;20072;-67
2022/02/16 01:28:51;;;;;;;6.68;1.70;;;4.50;88.00;;;;;;5037018;28;20033;-68
2022/02/16 01:31:17;;;;;;;4.03;1.40;;;4.50;88.00;;;;;;5036260;28;20083;-68
2022/02/16 01:33:43;;;;;;;3.55;1.27;;;4.50;88.40;;;;;;5034839;28;20045;-68
2022/02/16 01:36:09;;;;;;;3.85;1.10;;;4.60;88.00;;;;;;5037163;28;20021;-67
2022/02/16 01:38:38;;;;;;;8.35;1.90;;;4.70;88.30;;;;;;5034773;28;20025;-68
2022/02/16 01:41:04;;;;;;;6.70;1.48;;;4.70;88.10;;;;;;5035900;28;20113;-67
2022/02/16 01:43:31;;;;;;;4.22;1.10;;;4.60;88.30;;;;;;5033452;28;20514;-67
2022/02/16 01:45:59;;;;;;;4.43;1.55;;;4.80;88.30;;;;;;5033947;28;20033;-67
2022/02/16 01:48:25;;;;;;;5.40;1.20;;;4.80;88.30;;;;;;5033944;28;20037;-68
2022/02/16 01:50:51;;;;;;;4.60;1.13;;;4.90;88.20;;;;;;5035059;28;20292;-68
2022/02/16 01:53:17;;;;;;;4.50;1.20;;;5.00;88.40;;;;;;5034145;28;20071;-68
2022/02/16 01:55:46;;;;;;;2.65;1.10;;;5.10;88.40;;;;;;5035241;28;20026;-67
2022/02/16 01:58:15;;;;;;;2.45;1.10;;;5.10;88.20;;;;;;5034842;28;20056;-67
2022/02/16 02:00:43;;;;;;;2.45;1.15;;;5.20;88.20;;;;;;5034568;28;20072;-68
2022/02/16 02:03:10;;;;;;;3.40;1.10;;;5.20;88.20;;;;;;5033797;28;20022;-67
2022/02/16 02:05:36;;;;;;;3.15;1.10;;;5.10;88.30;;;;;;5035276;28;20034;-68
2022/02/16 02:08:02;;;;;;;2.20;1.00;;;5.10;88.70;;;;;;5033449;28;20025;-68
2022/02/16 02:10:28;;;;;;;4.43;1.13;;;5.10;88.80;;;;;;5034608;28;20337;-67
2022/02/16 02:12:54;;;;;;;3.67;1.23;;;5.20;88.50;;;;;;5035265;28;20112;-68
2022/02/16 02:15:23;;;;;;;2.42;1.10;;;5.20;88.40;;;;;;5029905;28;20026;-68
2022/02/16 02:17:49;;;;;;;1.85;1.02;;;5.20;88.70;;;;;;5029149;28;20029;-67
2022/02/16 02:20:33;;;;;;;1.75;0.90;;;5.30;88.60;;;;;;5033378;28;20047;-68
2022/02/16 02:22:59;;;;;;;3.72;1.08;;;5.20;89.10;;;;;;5035410;28;20033;-67
2022/02/16 02:25:25;;;;;;;2.88;1.00;;;5.20;89.40;;;;;;5032049;28;20374;-68
2022/02/16 02:27:52;;;;;;;3.28;0.93;;;5.30;89.20;;;;;;5029747;28;20052;-67
2022/02/16 02:30:18;;;;;;;3.20;0.85;;;5.30;89.40;;;;;;5032585;28;20426;-67
2022/02/16 02:32:48;;;;;;;2.25;1.15;;;5.30;89.20;;;;;;5033089;28;20041;-67
2022/02/16 02:35:14;;;;;;;2.35;0.90;;;5.40;89.20;;;;;;5034826;28;20018;-67
2022/02/16 02:37:41;;;;;;;3.97;1.05;;;5.30;89.40;;;;;;5035240;28;20109;-67
2022/02/16 02:40:09;;;;;;;2.05;0.90;;;5.40;89.40;;;;;;5033677;28;20541;-66
2022/02/16 02:42:39;;;;;;;1.65;1.00;;;5.50;89.30;;;;;;5033560;28;20029;-66
2022/02/16 02:45:07;;;;;;;1.65;1.00;;;5.50;89.60;;;;;;5031105;28;20026;-67
2022/02/16 02:47:33;;;;;;;3.97;1.00;;;5.50;89.40;;;;;;5032772;28;20029;-67
2022/02/16 02:49:58;;;;;;;3.67;1.02;;;5.50;89.70;;;;;;5032595;28;20091;-68
2022/02/16 02:52:24;;;;;;;2.50;1.00;;;5.50;89.80;;;;;;5036648;28;20029;-67
2022/02/16 02:54:50;;;;;;;1.70;0.80;;;5.50;89.70;;;;;;5030545;28;20033;-67
2022/02/16 02:57:17;;;;;;;2.58;1.35;;;5.50;89.90;;;;;;5034102;28;20033;-67
2022/02/16 02:59:42;;;;;;;2.15;0.90;;;5.50;89.80;;;;;;5031478;28;20061;-67
2022/02/16 03:02:08;;;;;;;1.75;0.80;;;5.50;90.00;;;;;;5025240;28;20955;-67
2022/02/16 03:04:34;;;;;;;1.80;0.90;;;5.50;90.30;;;;;;5025710;28;20029;-67
2022/02/16 03:07:00;;;;;;;1.75;0.82;;;5.50;90.30;;;;;;5027031;28;20441;-67
2022/02/16 03:09:28;;;;;;;4.25;1.10;;;5.50;90.30;;;;;;5027336;28;20030;-66
2022/02/16 03:11:55;;;;;;;2.38;0.90;;;5.40;90.50;;;;;;5029198;28;20128;-68
2022/02/16 03:14:21;;;;;;;2.75;1.20;;;5.40;90.50;;;;;;5024172;28;20037;-66
2022/02/16 03:16:46;;;;;;;1.85;1.00;;;5.40;90.50;;;;;;5023827;28;20025;-67
2022/02/16 03:19:12;;;;;;;2.95;0.90;;;5.40;90.40;;;;;;5022030;28;20018;-67
2022/02/16 03:21:38;;;;;;;2.47;1.00;;;5.30;90.30;;;;;;5025966;28;20448;-67
2022/02/16 03:24:06;;;;;;;2.33;1.00;;;5.30;90.40;;;;;;5027712;28;20033;-66
2022/02/16 03:26:33;;;;;;;1.50;0.88;;;5.30;90.60;;;;;;5029020;28;20104;-66
2022/02/16 03:28:59;;;;;;;2.65;0.93;;;5.30;90.70;;;;;;5030317;28;20059;-66
2022/02/16 03:31:25;;;;;;;2.03;0.90;;;5.30;90.60;;;;;;5026767;28;20422;-67
2022/02/16 03:33:51;;;;;;;2.08;0.90;;;5.30;90.60;;;;;;5022496;28;20496;-69
2022/02/16 03:36:17;;;;;;;3.75;0.98;;;5.30;90.70;;;;;;5022698;28;20036;-66
2022/02/16 03:38:42;;;;;;;2.13;1.05;;;5.30;90.70;;;;;;5025158;28;20116;-69
2022/02/16 03:41:11;;;;;;;2.83;1.00;;;5.30;90.80;;;;;;5029089;28;20413;-69
2022/02/16 03:43:37;;;;;;;1.75;1.13;;;5.40;90.90;;;;;;5025567;28;20030;-66
2022/02/16 03:46:03;;;;;;;1.65;0.90;;;5.30;90.70;;;;;;5039537;28;20488;-66
2022/02/16 03:48:29;;;;;;;2.97;1.00;;;5.30;90.50;;;;;;5023075;28;20041;-66
2022/02/16 03:50:55;;;;;;;1.83;0.90;;;5.30;90.60;;;;;;5025108;28;20045;-67
2022/02/16 03:53:21;;;;;;;1.90;1.00;;;5.30;90.40;;;;;;5027706;28;20123;-67
2022/02/16 03:55:46;;;;;;;1.55;0.90;;;5.30;90.40;;;;;;5026046;28;20040;-67
2022/02/16 03:58:15;;;;;;;1.65;0.85;;;5.30;90.70;;;;;;5023182;28;20060;-67
2022/02/16 04:00:41;;;;;;;1.80;0.90;;;5.30;90.40;;;;;;5023784;28;20033;-67
2022/02/16 04:03:08;;;;;;;3.05;1.08;;;5.30;90.20;;;;;;5022784;28;20033;-67
2022/02/16 04:05:34;;;;;;;4.43;1.15;;;5.20;90.40;;;;;;5024610;28;20040;-67
2022/02/16 04:08:00;;;;;;;5.57;2.33;;;5.20;90.40;;;;;;5023800;28;20060;-66
2022/02/16 04:10:26;;;;;;;2.92;1.00;;;5.20;90.60;;;;;;5023242;28;20061;-67
2022/02/16 04:12:52;;;;;;;1.80;0.90;;;5.10;90.80;;;;;;5028968;28;20021;-67
2022/02/16 04:15:17;;;;;;;2.17;1.13;;;5.10;91.00;;;;;;5044137;28;20033;-67
2022/02/16 04:17:44;;;;;;;2.10;1.27;;;5.20;90.80;;;;;;5026768;28;20033;-66
2022/02/16 04:20:10;;;;;;;2.28;1.13;;;5.20;90.60;;;;;;5026118;28;20112;-66
2022/02/16 04:22:43;;;;;;;2.88;0.98;;;5.20;90.60;;;;;;5023283;28;20152;-66
2022/02/16 04:25:10;;;;;;;2.33;1.07;;;5.10;90.80;;;;;;5026790;28;20037;-67
2022/02/16 04:27:36;;;;;;;6.20;2.35;;;5.10;90.90;;;;;;5028496;28;20366;-67
2022/02/16 04:30:03;;;;;;;30.38;13.77;;;5.10;91.20;;;;;;5030721;28;20037;-67
2022/02/16 04:32:29;;;;;;;54.97;32.17;;;5.10;91.30;;;;;;5028088;28;20072;-67
2022/02/16 04:34:55;;;;;;;16.58;9.45;;;5.00;91.40;;;;;;5027589;28;20053;-66
2022/02/16 04:37:24;;;;;;;3.30;1.20;;;5.00;91.70;;;;;;5028441;28;20432;-65
2022/02/16 04:39:50;;;;;;;12.05;5.43;;;5.00;91.80;;;;;;5026577;28;20033;-66
2022/02/16 04:42:17;;;;;;;9.55;3.88;;;5.00;91.80;;;;;;5041940;28;20021;-66
2022/02/16 04:44:43;;;;;;;10.43;5.40;;;5.00;91.90;;;;;;5039775;28;20315;-67
2022/02/16 04:47:08;;;;;;;7.57;4.03;;;5.00;92.20;;;;;;5045301;28;20035;-68
2022/02/16 04:49:35;;;;;;;3.33;1.50;;;5.00;92.30;;;;;;5039583;28;20039;-68
2022/02/16 04:52:00;;;;;;;3.85;1.35;;;5.00;92.20;;;;;;5028169;28;20485;-68
2022/02/16 04:54:26;;;;;;;3.33;1.58;;;5.00;92.40;;;;;;5038227;28;20029;-67
2022/02/16 04:56:55;;;;;;;3.05;1.00;;;5.00;92.50;;;;;;5036569;28;20026;-67
2022/02/16 04:59:26;;;;;;;2.63;1.17;;;5.00;92.70;;;;;;5038492;28;20017;-68
2022/02/16 05:01:52;;;;;;;2.28;1.15;;;5.00;92.80;;;;;;5044155;28;20059;-68
2022/02/16 05:04:18;;;;;;;1.58;0.90;;;5.00;93.00;;;;;;5039257;28;20060;-69
2022/02/16 05:06:45;;;;;;;2.25;1.13;;;5.00;93.20;;;;;;5037599;28;20029;-67
2022/02/16 05:09:11;;;;;;;2.88;1.40;;;5.10;93.10;;;;;;5038192;28;20094;-67
2022/02/16 05:11:37;;;;;;;2.00;1.13;;;5.10;93.00;;;;;;5037222;28;20025;-67
2022/02/16 05:14:03;;;;;;;3.72;1.83;;;5.10;93.20;;;;;;5038225;28;20017;-67
2022/02/16 05:16:31;;;;;;;4.32;1.40;;;5.20;93.00;;;;;;5029826;28;20087;-67
2022/02/16 05:19:00;;;;;;;1.25;0.90;;;5.10;93.10;;;;;;5029770;28;20029;-66
2022/02/16 05:21:26;;;;;;;3.72;1.50;;;5.10;93.10;;;;;;5031250;28;20167;-67
2022/02/16 05:23:53;;;;;;;2.55;1.08;;;5.20;93.20;;;;;;5030754;28;20038;-67
2022/02/16 05:26:19;;;;;;;1.58;0.90;;;5.20;93.00;;;;;;5028356;28;20030;-67
2022/02/16 05:28:45;;;;;;;1.83;0.90;;;5.10;92.90;;;;;;5029871;28;20063;-68
2022/02/16 05:31:11;;;;;;;1.73;1.00;;;5.10;93.10;;;;;;5033013;28;20021;-67
2022/02/16 05:33:37;;;;;;;1.25;0.80;;;5.10;93.20;;;;;;5030526;28;20046;-67
2022/02/16 05:36:06;;;;;;;2.22;1.20;;;5.10;93.40;;;;;;5033332;28;20104;-67
2022/02/16 05:38:33;;;;;;;1.77;1.08;;;5.10;93.40;;;;;;5033384;28;20449;-68
2022/02/16 05:40:59;;;;;;;2.33;1.00;;;5.10;93.30;;;;;;5033276;28;20433;-68
2022/02/16 05:43:25;;;;;;;2.65;0.90;;;5.00;93.60;;;;;;5030459;28;20025;-68
2022/02/16 05:45:50;;;;;;;1.40;0.80;;;5.10;93.50;;;;;;5031931;28;20030;-69
2022/02/16 05:48:20;;;;;;;1.90;0.90;;;5.10;93.60;;;;;;5040687;28;20025;-66
2022/02/16 05:50:47;;;;;;;1.73;0.88;;;5.20;93.60;;;;;;5058062;28;20047;-66
2022/02/16 05:53:14;;;;;;;2.47;1.00;;;5.20;93.50;;;;;;5043208;28;20022;-68
2022/02/16 05:55:40;;;;;;;1.80;1.00;;;5.10;93.70;;;;;;5026525;28;20030;-66
2022/02/16 05:58:06;;;;;;;1.85;0.88;;;5.10;93.80;;;;;;5026352;28;20026;-66
2022/02/16 06:00:35;;;;;;;2.15;0.90;;;5.10;93.80;;;;;;5020559;28;20304;-65
2022/02/16 06:03:01;;;;;;;1.60;0.90;;;5.10;93.80;;;;;;5019735;28;20053;-65
2022/02/16 06:05:27;;;;;;;1.55;0.90;;;5.00;94.10;;;;;;5028520;28;20041;-66
2022/02/16 06:07:53;;;;;;;1.92;0.80;;;5.00;94.30;;;;;;5035029;28;20414;-66
2022/02/16 06:10:18;;;;;;;2.13;0.90;;;5.10;94.10;;;;;;5036838;28;20021;-67
2022/02/16 06:12:44;;;;;;;2.65;1.40;;;5.10;94.00;;;;;;5038987;28;20025;-68
2022/02/16 06:15:11;;;;;;;4.10;1.08;;;5.00;94.20;;;;;;5030071;28;20515;-66
2022/02/16 06:17:36;;;;;;;3.58;1.00;;;5.00;94.40;;;;;;5037517;28;20108;-66
2022/02/16 06:20:03;;;;;;;2.47;1.02;;;5.00;94.40;;;;;;5036965;28;20053;-66
2022/02/16 06:22:28;;;;;;;4.07;1.05;;;5.00;94.50;;;;;;5036335;28;20470;-67
2022/02/16 06:24:57;;;;;;;2.75;1.08;;;5.00;94.50;;;;;;5037581;28;20113;-68
2022/02/16 06:27:23;;;;;;;2.15;1.00;;;4.90;94.50;;;;;;5037155;28;20044;-67
2022/02/16 06:29:49;;;;;;;1.73;1.10;;;4.90;94.70;;;;;;5037433;28;20017;-67
2022/02/16 06:32:14;;;;;;;2.20;1.10;;;5.00;94.60;;;;;;5036896;28;20030;-69
2022/02/16 06:34:40;;;;;;;2.58;1.10;;;4.90;94.80;;;;;;5035548;28;20494;-67
2022/02/16 06:37:06;;;;;;;1.80;0.90;;;5.00;94.80;;;;;;5037031;28;20074;-68
2022/02/16 06:39:31;;;;;;;1.70;1.00;;;5.00;94.90;;;;;;5037163;28;20086;-68
2022/02/16 06:41:57;;;;;;;2.35;1.00;;;5.00;94.90;;;;;;5036985;28;20033;-67
2022/02/16 06:44:22;;;;;;;2.75;1.13;;;5.10;94.60;;;;;;5037017;28;20029;-66
2022/02/16 06:46:48;;;;;;;1.92;0.98;;;5.10;94.40;;;;;;5033324;28;20021;-67
2022/02/16 06:49:14;;;;;;;2.67;1.10;;;5.10;94.50;;;;;;5030722;28;20030;-68
2022/02/16 06:51:42;;;;;;;1.63;1.00;;;5.10;94.50;;;;;;5031659;28;20044;-67
2022/02/16 06:54:07;;;;;;;1.63;1.00;;;5.20;94.50;;;;;;5032723;28;20013;-67
2022/02/16 06:56:33;;;;;;;1.30;1.00;;;5.20;94.30;;;;;;5032830;28;20056;-67
2022/02/16 06:58:59;;;;;;;1.80;0.90;;;5.30;94.30;;;;;;5032337;28;20037;-67
2022/02/16 07:01:24;;;;;;;3.25;1.15;;;5.20;94.30;;;;;;5032266;28;20097;-67
2022/02/16 07:03:50;;;;;;;2.83;0.95;;;5.20;94.40;;;;;;5031533;28;20504;-67
2022/02/16 07:06:16;;;;;;;2.03;1.00;;;5.20;94.40;;;;;;5032037;28;20314;-67
2022/02/16 07:08:41;;;;;;;1.52;0.95;;;5.30;94.40;;;;;;5031674;28;20033;-69
2022/02/16 07:11:07;;;;;;;1.67;1.02;;;5.40;94.30;;;;;;5031133;28;20028;-67
2022/02/16 07:13:32;;;;;;;1.52;0.80;;;5.40;94.10;;;;;;5032188;28;20136;-67
2022/02/16 07:15:58;;;;;;;1.77;1.00;;;5.50;94.00;;;;;;5029675;28;20369;-67
2022/02/16 07:18:27;;;;;;;2.80;0.90;;;5.50;93.70;;;;;;5028960;28;20322;-67
2022/02/16 07:20:53;;;;;;;1.92;1.00;;;5.50;93.70;;;;;;5030539;28;20025;-68
2022/02/16 07:23:19;;;;;;;1.60;0.88;;;5.60;93.70;;;;;;5031439;28;20079;-67
2022/02/16 07:25:45;;;;;;;1.55;0.80;;;5.60;93.90;;;;;;5032761;28;20026;-67
2022/02/16 07:28:11;;;;;;;0.98;0.75;;;5.60;93.80;;;;;;5030817;28;20036;-67
2022/02/16 07:30:36;;;;;;;1.75;0.90;;;5.60;93.70;;;;;;5029006;28;20136;-67
2022/02/16 07:33:02;;;;;;;1.75;0.90;;;5.60;93.60;;;;;;5031621;28;20107;-67
2022/02/16 07:35:28;;;;;;;2.10;0.88;;;5.70;93.50;;;;;;5031519;28;20076;-67
2022/02/16 07:37:55;;;;;;;2.10;0.90;;;5.70;93.40;;;;;;5031741;28;20025;-68
2022/02/16 07:40:21;;;;;;;1.92;0.90;;;5.70;93.30;;;;;;5033676;28;20434;-67
2022/02/16 07:42:47;;;;;;;1.73;0.90;;;5.70;93.50;;;;;;5036090;28;20022;-68
2022/02/16 07:45:12;;;;;;;1.17;0.85;;;5.70;93.50;;;;;;5035597;28;20021;-68
2022/02/16 07:47:38;;;;;;;1.95;0.90;;;5.70;93.70;;;;;;5033838;28;20044;-68
2022/02/16 07:50:04;;;;;;;2.30;0.88;;;5.80;93.40;;;;;;5035723;28;20200;-67
2022/02/16 07:52:38;;;;;;;1.02;0.70;;;5.90;93.20;;;;;;5035939;28;20318;-68
2022/02/16 07:55:04;;;;;;;2.22;0.80;;;6.00;93.10;;;;;;5035265;28;20156;-68
2022/02/16 07:57:30;;;;;;;1.23;0.80;;;6.00;92.90;;;;;;5032072;28;20460;-68
2022/02/16 07:59:55;;;;;;;1.70;0.80;;;6.10;93.10;;;;;;5030659;28;20109;-67
2022/02/16 08:02:21;;;;;;;0.93;0.70;;;6.10;92.80;;;;;;5032252;28;20048;-68
2022/02/16 08:04:50;;;;;;;1.02;0.68;;;6.20;92.80;;;;;;5029880;28;20029;-68
2022/02/16 08:07:15;;;;;;;0.93;0.70;;;6.30;92.50;;;;;;5031064;28;20037;-67
2022/02/16 08:09:41;;;;;;;4.38;2.45;;;6.50;92.30;;;;;;5031951;28;20025;-67
2022/02/16 08:12:07;;;;;;;1.77;0.70;;;6.50;92.10;;;;;;5032214;28;20480;-67
2022/02/16 08:14:33;;;;;;;0.60;0.60;;;6.60;91.90;;;;;;5033298;28;20029;-68
2022/02/16 08:17:02;;;;;;;0.82;0.70;;;6.50;92.00;;;;;;5033763;28;20017;-67
2022/02/16 08:19:28;;;;;;;0.80;0.70;;;6.50;92.30;;;;;;5035735;28;20418;-67
2022/02/16 08:21:55;;;;;;;0.90;0.70;;;6.50;92.40;;;;;;5038556;28;20037;-68
2022/02/16 08:24:22;;;;;;;0.80;0.70;;;6.60;92.60;;;;;;5039662;28;20021;-68
2022/02/16 08:26:47;;;;;;;1.67;0.80;;;6.50;92.30;;;;;;5039139;28;20025;-68
2022/02/16 08:29:15;;;;;;;0.73;0.70;;;6.60;92.80;;;;;;5039655;28;20021;-67
2022/02/16 08:31:41;;;;;;;0.80;0.65;;;6.60;92.60;;;;;;5037445;28;20021;-67
2022/02/16 08:34:08;;;;;;;0.88;0.70;;;6.70;92.60;;;;;;5038460;28;20438;-67
2022/02/16 08:36:37;;;;;;;1.20;0.90;;;6.70;93.00;;;;;;5038892;28;20032;-67
2022/02/16 08:39:04;;;;;;;0.63;0.60;;;6.60;93.20;;;;;;5038128;28;20313;-67
2022/02/16 08:41:29;;;;;;;1.42;0.80;;;6.50;94.20;;;;;;5037555;28;20327;-67
2022/02/16 08:43:55;;;;;;;1.92;1.00;;;6.40;95.40;;;;;;5038364;28;20025;-68
2022/02/16 08:46:21;;;;;;;1.45;0.70;;;6.20;95.80;;;;;;5039584;28;20495;-68
2022/02/16 08:48:46;;;;;;;1.40;0.80;;;6.10;96.30;;;;;;5037852;28;20021;-67
2022/02/16 08:51:15;;;;;;;1.67;0.70;;;6.10;96.20;;;;;;5039448;28;20100;-67
2022/02/16 08:53:41;;;;;;;1.20;0.70;;;6.30;95.70;;;;;;5039169;28;20197;-67
2022/02/16 08:56:07;;;;;;;1.05;0.70;;;6.30;95.60;;;;;;5039178;28;20318;-67
2022/02/16 08:58:33;;;;;;;2.20;0.80;;;6.40;94.90;;;;;;5038593;28;20491;-67
2022/02/16 09:00:59;;;;;;;1.23;0.70;;;6.40;95.30;;;;;;5036471;28;20029;-68
2022/02/16 09:03:29;;;;;;;0.85;0.60;;;6.40;95.10;;;;;;5036161;28;20452;-68
2022/02/16 09:05:55;;;;;;;1.08;0.77;;;6.30;95.80;;;;;;5038245;28;20026;-67
2022/02/16 09:08:21;;;;;;;0.63;0.63;;;6.30;96.30;;;;;;5038381;28;20278;-68
2022/02/16 09:10:47;;;;;;;1.10;0.75;;;6.40;96.30;;;;;;5039400;28;20414;-67
2022/02/16 09:13:13;;;;;;;0.73;0.60;;;6.40;95.50;;;;;;5038103;28;20037;-67
2022/02/16 09:15:39;;;;;;;1.48;0.70;;;6.40;95.80;;;;;;5039155;28;20033;-67
2022/02/16 09:18:05;;;;;;;1.00;0.70;;;6.50;96.30;;;;;;5037069;28;20092;-66
2022/02/16 09:20:32;;;;;;;0.98;0.70;;;6.40;96.50;;;;;;5037828;28;20381;-67
2022/02/16 09:22:58;;;;;;;0.70;0.65;;;6.40;96.50;;;;;;5037600;28;20025;-67
2022/02/16 09:25:23;;;;;;;1.20;0.73;;;6.40;96.30;;;;;;5037285;28;20570;-68
2022/02/16 09:27:52;;;;;;;1.02;0.70;;;6.50;96.30;;;;;;5037803;28;20029;-69
2022/02/16 09:30:18;;;;;;;1.20;0.80;;;6.50;96.00;;;;;;5037140;28;20041;-68
2022/02/16 09:32:46;;;;;;;1.15;0.60;;;6.60;95.80;;;;;;5032448;28;20049;-68
2022/02/16 09:35:12;;;;;;;2.80;0.80;;;6.60;96.20;;;;;;5036928;28;20061;-68
2022/02/16 09:37:38;;;;;;;0.82;0.60;;;6.60;96.20;;;;;;5037608;28;20060;-68
2022/02/16 09:40:05;;;;;;;0.80;0.70;;;6.70;95.90;;;;;;5036471;28;20030;-68
2022/02/16 09:42:34;;;;;;;0.70;0.68;;;6.80;95.50;;;;;;5036317;28;20022;-68
2022/02/16 09:45:03;;;;;;;1.10;0.70;;;6.90;94.90;;;;;;5036605;28;20022;-68
2022/02/16 09:47:31;;;;;;;0.90;0.70;;;6.90;94.60;;;;;;5037597;28;20056;-68
2022/02/16 09:50:02;;;;;;;1.55;0.80;;;7.00;95.00;;;;;;5033949;28;20021;-68
2022/02/16 09:52:27;;;;;;;1.02;0.70;;;7.00;94.50;;;;;;5018458;28;20026;-68
2022/02/16 09:54:54;;;;;;;0.88;0.63;;;7.10;94.40;;;;;;5028637;28;20330;-68
2022/02/16 09:57:21;;;;;;;0.93;0.70;;;7.10;94.40;;;;;;5032750;28;20424;-68
2022/02/16 09:59:50;;;;;;;0.70;0.60;;;7.20;94.50;;;;;;5036793;28;20048;-68
2022/02/16 10:02:16;;;;;;;0.88;0.70;;;7.10;94.50;;;;;;5038161;28;20048;-68
2022/02/16 10:04:58;;;;;;;1.30;0.80;;;7.10;94.50;;;;;;5036218;28;20025;-68
2022/02/16 10:07:30;;;;;;;0.63;0.63;;;7.20;94.70;;;;;;5037652;28;20037;-68
2022/02/16 10:10:13;;;;;;;1.35;0.70;;;7.30;94.10;;;;;;5036782;28;20026;-67
2022/02/16 10:12:39;;;;;;;0.80;0.65;;;7.30;94.10;;;;;;5037783;28;20064;-68
2022/02/16 10:15:06;;;;;;;0.60;0.60;;;7.30;93.90;;;;;;5037399;28;20013;-67
2022/02/16 10:17:32;;;;;;;1.35;0.77;;;7.40;94.20;;;;;;5037708;28;20026;-67
2022/02/16 10:20:01;;;;;;;0.77;0.60;;;7.50;93.90;;;;;;5034726;28;20567;-68
2022/02/16 10:22:30;;;;;;;0.57;0.55;;;7.50;93.90;;;;;;5037093;28;20323;-68
2022/02/16 10:25:14;;;;;;;1.25;0.70;;;7.60;93.90;;;;;;5035072;28;20024;-67
2022/02/16 10:27:59;;;;;;;;;;;7.70;93.10;;;;;;5030429;28;20108;-68
2022/02/16 10:30:25;;;;;;;0.95;0.70;;;7.80;93.20;;;;;;5036320;28;20360;-68
2022/02/16 10:33:13;;;;;;;0.70;0.60;;;7.90;93.20;;;;;;5036218;28;20046;-67
2022/02/16 10:35:39;;;;;;;1.05;0.60;;;7.90;93.10;;;;;;5036577;28;20035;-68
2022/02/16 10:38:05;;;;;;;0.93;0.63;;;8.00;92.90;;;;;;5037311;28;20026;-67
2022/02/16 10:40:30;;;;;;;0.60;0.60;;;8.10;92.90;;;;;;5036976;28;20220;-68
2022/02/16 10:43:01;;;;;;;0.63;0.60;;;8.20;92.50;;;;;;5035507;28;20053;-68
2022/02/16 10:45:30;;;;;;;0.95;0.70;;;8.20;92.50;;;;;;5035781;28;20033;-68
2022/02/16 10:48:04;;;;;;;1.65;1.08;;;8.20;92.30;;;;;;5034045;28;20304;-68
2022/02/16 10:50:34;;;;;;;0.68;0.60;;;8.20;92.50;;;;;;5037029;28;20095;-68
2022/02/16 10:53:03;;;;;;;2.03;0.80;;;8.20;92.70;;;;;;5037166;28;20025;-68
2022/02/16 10:55:42;;;;;;;0.60;0.60;;;8.30;92.20;;;;;;5036930;28;20039;-67
2022/02/16 10:58:11;;;;;;;0.60;0.60;;;8.30;92.60;;;;;;5036954;28;20033;-68
2022/02/16 11:00:40;;;;;;;1.05;0.70;;;8.40;92.10;;;;;;5036848;28;20025;-67
2022/02/16 11:03:07;;;;;;;1.00;0.60;;;8.60;92.10;;;;;;5035079;28;20699;-68
2022/02/16 11:05:39;;;;;;;0.70;0.60;;;8.70;91.60;;;;;;5036929;28;20032;-67
2022/02/16 11:08:07;;;;;;;1.08;0.55;;;8.70;92.20;;;;;;5036658;28;20406;-68
2022/02/16 11:10:34;;;;;;;1.38;0.80;;;8.90;91.60;;;;;;5035855;28;20030;-67
2022/02/16 11:13:01;;;;;;;0.82;0.60;;;8.90;91.60;;;;;;5036488;28;20357;-67
2022/02/16 11:15:27;;;;;;;0.70;0.60;;;9.00;91.10;;;;;;5035633;28;20426;-68
2022/02/16 11:17:54;;;;;;;0.65;0.60;;;9.00;91.80;;;;;;5032735;28;20680;-68
2022/02/16 11:20:27;;;;;;;0.60;0.60;;;9.10;91.20;;;;;;5016963;28;20092;-67
2022/02/16 11:22:57;;;;;;;1.33;0.60;;;9.30;91.00;;;;;;5025379;28;20026;-67
2022/02/16 11:25:45;;;;;;;0.63;0.60;;;9.30;90.80;;;;;;5036470;28;20410;-67
2022/02/16 11:28:11;;;;;;;1.67;0.60;;;9.40;91.00;;;;;;5036295;28;20059;-67
2022/02/16 11:30:47;;;;;;;0.70;0.60;;;9.60;90.90;;;;;;5035895;28;20111;-67
2022/02/16 11:33:21;;;;;;;0.60;0.60;;;9.80;90.20;;;;;;5034804;28;20044;-67
2022/02/16 11:35:47;;;;;;;1.05;0.63;;;10.00;90.10;;;;;;5033277;28;20109;-67
2022/02/16 11:38:15;;;;;;;0.82;0.55;;;10.10;89.70;;;;;;5035182;28;20379;-67
2022/02/16 11:40:50;;;;;;;0.63;0.60;;;10.20;89.50;;;;;;5032332;28;20025;-68
2022/02/16 11:43:19;;;;;;;0.50;0.50;;;10.10;89.60;;;;;;5035581;28;20029;-67
2022/02/16 11:46:01;;;;;;;0.93;0.65;;;9.60;90.60;;;;;;5035765;28;20065;-67
2022/02/16 11:48:50;;;;;;;0.65;0.60;;;9.60;91.60;;;;;;5034870;28;20034;-67
2022/02/16 11:51:33;;;;;;;0.90;0.70;;;9.60;91.40;;;;;;5016363;28;20040;-67
2022/02/16 11:54:19;;;;;;;0.52;0.52;;;9.70;91.30;;;;;;5016790;28;20359;-67
2022/02/16 11:56:44;;;;;;;0.60;0.60;;;9.70;91.50;;;;;;5034825;28;20033;-67
2022/02/16 11:59:23;;;;;;;0.95;0.63;;;9.80;91.00;;;;;;5035625;28;20042;-67
2022/02/16 12:02:09;;;;;;;0.85;0.60;;;9.80;90.70;;;;;;5031074;28;20029;-67
2022/02/16 12:04:54;;;;;;;0.50;0.50;;;9.90;91.00;;;;;;5023814;28;20053;-67
2022/02/16 12:07:28;;;;;;;1.65;0.50;;;9.90;91.00;;;;;;5033981;28;20805;-66
2022/02/16 12:10:20;;;;;;;0.57;0.57;;;9.60;91.40;;;;;;5021250;28;20025;-66
2022/02/16 12:12:47;;;;;;;1.45;0.80;;;9.50;91.90;;;;;;5034470;28;20079;-66
2022/02/16 12:15:16;;;;;;;0.80;0.65;;;9.50;91.80;;;;;;5035270;28;20018;-66
2022/02/16 12:17:41;;;;;;;1.25;0.68;;;9.40;92.20;;;;;;5034679;28;20065;-68
2022/02/16 12:20:08;;;;;;;0.68;0.60;;;9.50;92.20;;;;;;5035160;28;20057;-67
2022/02/16 12:22:35;;;;;;;1.02;0.70;;;9.50;92.20;;;;;;5055668;28;20029;-68
2022/02/16 12:25:08;;;;;;;0.85;0.60;;;9.60;92.10;;;;;;5036367;28;20022;-68
2022/02/16 12:27:34;;;;;;;0.77;0.60;;;9.60;92.20;;;;;;5035517;28;20030;-67
2022/02/16 12:30:02;;;;;;;0.80;0.60;;;9.70;92.30;;;;;;5034850;28;20033;-67
2022/02/16 12:32:27;;;;;;;0.70;0.60;;;9.60;92.80;;;;;;5035346;28;20117;-68
2022/02/16 12:34:53;;;;;;;0.60;0.60;;;9.70;92.70;;;;;;5033940;28;20112;-67
2022/02/16 12:37:21;;;;;;;1.05;0.70;;;9.70;92.60;;;;;;5034786;28;20022;-68
2022/02/16 12:40:00;;;;;;;0.90;0.60;;;9.70;92.70;;;;;;5035111;28;20030;-68
2022/02/16 12:42:41;;;;;;;0.88;0.52;;;9.50;93.40;;;;;;5031493;28;20036;-68
2022/02/16 12:45:09;;;;;;;0.63;0.60;;;9.70;93.40;;;;;;5035406;28;20045;-67
2022/02/16 12:47:35;;;;;;;0.73;0.68;;;9.60;93.70;;;;;;5033080;28;20382;-68
2022/02/16 12:50:11;;;;;;;0.80;0.52;;;9.70;93.80;;;;;;5034900;28;20087;-68
2022/02/16 12:52:37;;;;;;;6.50;2.25;;;9.60;93.70;;;;;;5034903;28;20421;-68
2022/02/16 12:55:09;;;;;;;0.95;0.60;;;9.70;93.90;;;;;;5031703;28;20073;-67
2022/02/16 12:57:37;;;;;;;2.60;1.15;;;9.80;93.20;;;;;;5032263;28;20025;-68
2022/02/16 13:03:02;;;;;;;0.70;0.63;;;9.80;93.40;;;;;;5033515;28;20391;-67